Time;durP1;ratioP1;P1;durP2;ratioP2;P2;SDS_P1;SDS_P2;PMS_P1;PMS_P2;Temp;Humidity;BMP_temperature;BMP_pressure;BME280_temperature;BME280_humidity;BME280_pressure;Samples;Min_cycle;Max_cycle;Signal;HPM_P1;HPM_P2
2023/01/08 00:02:18;;;;;;;;;;;;;;;10.34;65.58;99815.19;4480804;31;35142;-64
2023/01/08 00:04:45;;;;;;;;;;;;;;;10.52;65.05;99801.41;4484189;31;34250;-65
2023/01/08 00:07:13;;;;;;;;;;;;;;;10.64;64.44;99797.84;4482887;32;33931;-64
2023/01/08 00:09:40;;;;;;;;;;;;;;;10.62;63.99;99792.56;4477480;32;34841;-64
2023/01/08 00:12:07;;;;;;;;;;;;;;;10.57;64.27;99799.25;4475029;32;35268;-66
2023/01/08 00:14:34;;;;;;;;;;;;;;;10.15;65.99;99791.56;4470870;31;33637;-64
2023/01/08 00:17:03;;;;;;;;;;;;;;;10.27;65.64;99800.53;4473400;32;34108;-65
2023/01/08 00:19:30;;;;;;;;;;;;;;;9.96;66.73;99802.72;4481461;32;34461;-64
2023/01/08 00:21:58;;;;;;;;;;;;;;;9.84;66.93;99800.06;4472999;32;35212;-64
2023/01/08 00:24:25;;;;;;;;;;;;;;;10.13;66.21;99789.94;4483785;32;33103;-63
2023/01/08 00:26:53;;;;;;;;;;;;;;;10.17;66.22;99781.56;4475820;32;33964;-63
2023/01/08 00:29:20;;;;;;;;;;;;;;;9.66;68.05;99787.03;4473101;32;34047;-66
2023/01/08 00:31:47;;;;;;;;;;;;;;;10.11;66.34;99782.06;4469456;31;34880;-65
2023/01/08 00:34:14;;;;;;;;;;;;;;;10.23;66.01;99777.59;4468540;32;33417;-66
2023/01/08 00:36:42;;;;;;;;;;;;;;;10.11;65.95;99770.47;4482009;32;33191;-65
2023/01/08 00:39:09;;;;;;;;;;;;;;;10.41;65.19;99773.63;4484148;32;34193;-63
2023/01/08 00:41:36;;;;;;;;;;;;;;;10.03;66.42;99771.87;4477060;32;34715;-63
2023/01/08 00:44:04;;;;;;;;;;;;;;;10.16;65.89;99782.56;4469885;32;33388;-63
2023/01/08 00:46:31;;;;;;;;;;;;;;;10.39;65.53;99786.25;4470722;32;33959;-63
2023/01/08 00:48:58;;;;;;;;;;;;;;;10.34;64.93;99785.75;4480065;32;34509;-67
2023/01/08 00:51:26;;;;;;;;;;;;;;;10.04;66.94;99796.81;4477230;31;34334;-66
2023/01/08 00:53:53;;;;;;;;;;;;;;;10.46;65.28;99798.25;4482403;32;34231;-66
2023/01/08 00:56:21;;;;;;;;;;;;;;;9.82;66.47;99807.31;4480461;32;34938;-63
2023/01/08 00:58:48;;;;;;;;;;;;;;;8.86;71.06;99808.50;4478016;32;34440;-63
2023/01/08 01:01:15;;;;;;;;;;;;;;;9.06;69.63;99801.84;4467628;32;34798;-64
2023/01/08 01:03:43;;;;;;;;;;;;;;;8.56;71.42;99799.84;4482531;32;33512;-63
2023/01/08 01:06:11;;;;;;;;;;;;;;;10.20;66.01;99797.41;4475614;32;33572;-67
2023/01/08 01:08:39;;;;;;;;;;;;;;;10.49;64.69;99802.47;4470807;32;34986;-63
2023/01/08 01:11:12;;;;;;;;;;;;;;;10.45;64.82;99801.84;4476176;32;34253;-65
2023/01/08 01:13:39;;;;;;;;;;;;;;;10.33;65.28;99800.06;4481563;32;32918;-66
2023/01/08 01:16:07;;;;;;;;;;;;;;;10.06;66.07;99799.38;4476199;32;32788;-64
2023/01/08 01:18:34;;;;;;;;;;;;;;;10.36;64.59;99794.50;4480991;32;34017;-64
2023/01/08 01:21:01;;;;;;;;;;;;;;;8.80;69.47;99794.72;4476677;32;34995;-64
2023/01/08 01:23:29;;;;;;;;;;;;;;;10.26;64.70;99783.62;4467608;32;34231;-64
2023/01/08 01:25:56;;;;;;;;;;;;;;;9.46;68.06;99785.72;4470926;32;32989;-67
2023/01/08 01:28:23;;;;;;;;;;;;;;;9.90;66.52;99783.59;4479098;32;33960;-67
2023/01/08 01:30:54;;;;;;;;;;;;;;;8.85;70.50;99790.78;4475465;32;33359;-65
2023/01/08 01:33:22;;;;;;;;;;;;;;;9.62;67.29;99782.00;4467955;32;33605;-64
2023/01/08 01:35:57;;;;;;;;;;;;;;;9.68;66.87;99778.91;4469427;32;35180;-65
2023/01/08 01:38:25;;;;;;;;;;;;;;;9.42;67.73;99776.22;4478272;32;35208;-63
2023/01/08 01:40:52;;;;;;;;;;;;;;;9.65;67.39;99779.97;4481086;32;34056;-66
2023/01/08 01:43:39;;;;;;;;;;;;;;;9.32;67.77;99769.81;4483697;32;33983;-65
2023/01/08 01:46:15;;;;;;;;;;;;;;;9.28;68.42;99760.31;4473639;32;33534;-63
2023/01/08 01:48:43;;;;;;;;;;;;;;;9.50;68.17;99765.00;4469832;32;35664;-63
2023/01/08 01:51:10;;;;;;;;;;;;;;;10.01;65.40;99757.75;4482116;32;33882;-64
2023/01/08 01:53:37;;;;;;;;;;;;;;;8.98;69.08;99760.59;4483652;32;34167;-63
2023/01/08 01:56:05;;;;;;;;;;;;;;;9.81;66.79;99750.31;4478250;32;34035;-67
2023/01/08 01:58:32;;;;;;;;;;;;;;;9.30;68.11;99742.34;4477434;32;35443;-66
2023/01/08 02:01:00;;;;;;;;;;;;;;;9.66;67.03;99738.94;4482354;32;34084;-64
2023/01/08 02:03:29;;;;;;;;;;;;;;;9.68;66.60;99734.31;4459305;32;33257;-64
2023/01/08 02:05:56;;;;;;;;;;;;;;;9.72;66.45;99732.28;4479403;32;33689;-64
2023/01/08 02:08:39;;;;;;;;;;;;;;;9.69;67.07;99732.50;4460649;32;33998;-64
2023/01/08 02:11:10;;;;;;;;;;;;;;;8.36;71.06;99731.78;4480411;32;35226;-66
2023/01/08 02:13:38;;;;;;;;;;;;;;;9.18;69.13;99724.50;4474448;32;32251;-65
2023/01/08 02:16:08;;;;;;;;;;;;;;;9.52;67.10;99725.69;4457923;32;33843;-64
2023/01/08 02:18:35;;;;;;;;;;;;;;;9.79;66.33;99720.16;4453042;32;34002;-66
2023/01/08 02:21:08;;;;;;;;;;;;;;;8.84;69.49;99721.50;4478844;32;34189;-66
2023/01/08 02:23:55;;;;;;;;;;;;;;;9.66;66.27;99716.66;4451508;32;32045;-64
2023/01/08 02:26:23;;;;;;;;;;;;;;;9.46;66.78;99713.59;4457751;32;34242;-64
2023/01/08 02:29:00;;;;;;;;;;;;;;;8.83;69.26;99717.97;4451326;32;34546;-64
2023/01/08 02:31:27;;;;;;;;;;;;;;;9.65;66.51;99710.47;4454418;32;34202;-64
2023/01/08 02:33:55;;;;;;;;;;;;;;;8.71;70.45;99709.94;4450598;32;32229;-66
2023/01/08 02:36:32;;;;;;;;;;;;;;;9.68;66.54;99704.06;4460233;32;34011;-65
2023/01/08 02:39:03;;;;;;;;;;;;;;;9.38;67.34;99704.44;4477035;32;35360;-65
2023/01/08 02:41:33;;;;;;;;;;;;;;;8.53;70.23;99710.19;4468286;32;34214;-65
2023/01/08 02:44:01;;;;;;;;;;;;;;;9.06;68.95;99704.88;4452014;32;32619;-66
2023/01/08 02:46:28;;;;;;;;;;;;;;;9.22;67.97;99710.00;4453743;32;34841;-66
2023/01/08 02:48:59;;;;;;;;;;;;;;;9.07;68.83;99702.06;4467446;32;34032;-65
2023/01/08 02:51:28;;;;;;;;;;;;;;;9.48;67.66;99701.00;4469912;32;34898;-65
2023/01/08 02:54:00;;;;;;;;;;;;;;;9.74;66.18;99701.81;4452741;32;33089;-65
2023/01/08 02:56:28;;;;;;;;;;;;;;;9.75;65.65;99702.66;4452966;32;34063;-65
2023/01/08 02:58:56;;;;;;;;;;;;;;;9.16;67.59;99705.09;4455203;32;35484;-65
2023/01/08 03:01:23;;;;;;;;;;;;;;;9.15;67.17;99698.00;4474410;32;34325;-66
2023/01/08 03:03:58;;;;;;;;;;;;;;;9.39;67.24;99698.13;4460077;32;33496;-67
2023/01/08 03:06:26;;;;;;;;;;;;;;;8.70;69.79;99700.22;4476185;32;34072;-65
2023/01/08 03:08:53;;;;;;;;;;;;;;;9.02;68.81;99701.56;4468388;32;34343;-65
2023/01/08 03:11:21;;;;;;;;;;;;;;;8.53;70.58;99696.00;4469853;32;34469;-65
2023/01/08 03:13:51;;;;;;;;;;;;;;;8.94;68.72;99695.87;4456255;32;33687;-66
2023/01/08 03:16:20;;;;;;;;;;;;;;;8.24;71.17;99695.25;4462649;32;34680;-66
2023/01/08 03:18:58;;;;;;;;;;;;;;;8.75;70.00;99680.25;4468814;32;34216;-65
2023/01/08 03:21:26;;;;;;;;;;;;;;;9.16;68.41;99683.72;4467932;32;33970;-65
2023/01/08 03:23:53;;;;;;;;;;;;;;;8.14;72.42;99689.69;4466787;32;33211;-66
2023/01/08 03:26:21;;;;;;;;;;;;;;;8.57;71.40;99690.38;4461248;32;33117;-66
2023/01/08 03:28:50;;;;;;;;;;;;;;;9.23;68.40;99688.50;4470691;32;34131;-64
2023/01/08 03:31:17;;;;;;;;;;;;;;;9.66;66.56;99679.25;4472202;32;33998;-64
2023/01/08 03:33:45;;;;;;;;;;;;;;;9.83;65.60;99668.22;4459091;32;34345;-65
2023/01/08 03:36:13;;;;;;;;;;;;;;;10.03;64.77;99678.28;4457537;32;34381;-64
2023/01/08 03:38:47;;;;;;;;;;;;;;;9.55;65.88;99678.22;4451593;32;35626;-66
2023/01/08 03:41:17;;;;;;;;;;;;;;;9.86;65.29;99686.72;4452677;32;35006;-66
2023/01/08 03:43:44;;;;;;;;;;;;;;;10.00;65.20;99680.34;4451866;32;33573;-66
2023/01/08 03:46:19;;;;;;;;;;;;;;;9.85;65.61;99676.97;4467101;32;33971;-65
2023/01/08 03:48:47;;;;;;;;;;;;;;;8.49;70.17;99682.03;4457210;32;34343;-65
2023/01/08 03:51:14;;;;;;;;;;;;;;;9.30;67.99;99673.75;4447543;32;33664;-66
2023/01/08 03:53:42;;;;;;;;;;;;;;;8.95;69.43;99665.53;4472328;32;33386;-65
2023/01/08 03:56:09;;;;;;;;;;;;;;;9.15;68.39;99660.63;4469893;32;34541;-65
2023/01/08 03:58:36;;;;;;;;;;;;;;;8.78;70.05;99669.38;4473400;32;34281;-65
2023/01/08 04:01:04;;;;;;;;;;;;;;;9.57;67.05;99654.06;4476645;32;34664;-65
2023/01/08 04:03:31;;;;;;;;;;;;;;;10.15;64.62;99660.50;4468195;32;35042;-65
2023/01/08 04:05:59;;;;;;;;;;;;;;;9.34;67.30;99647.69;4469292;32;34138;-65
2023/01/08 04:08:26;;;;;;;;;;;;;;;8.91;69.27;99668.53;4467597;32;34084;-65
2023/01/08 04:10:53;;;;;;;;;;;;;;;9.57;66.88;99667.44;4469026;32;33852;-64
2023/01/08 04:13:21;;;;;;;;;;;;;;;9.13;68.46;99663.41;4470560;32;34462;-64
2023/01/08 04:15:48;;;;;;;;;;;;;;;10.13;64.91;99662.41;4469412;32;34252;-65
2023/01/08 04:18:16;;;;;;;;;;;;;;;9.50;66.31;99659.00;4465986;32;33847;-66
2023/01/08 04:20:44;;;;;;;;;;;;;;;9.12;68.02;99666.19;4482946;32;34200;-64
2023/01/08 04:23:11;;;;;;;;;;;;;;;9.35;67.85;99662.75;4479502;32;34561;-65
2023/01/08 04:25:39;;;;;;;;;;;;;;;9.17;67.83;99661.38;4476685;32;33835;-65
2023/01/08 04:28:06;;;;;;;;;;;;;;;9.05;69.43;99658.63;4479057;32;34066;-66
2023/01/08 04:30:34;;;;;;;;;;;;;;;9.22;68.46;99641.41;4469622;32;34090;-67
2023/01/08 04:33:01;;;;;;;;;;;;;;;9.03;68.99;99651.69;4480280;32;34080;-68
2023/01/08 04:35:28;;;;;;;;;;;;;;;9.48;67.82;99650.25;4483558;32;33489;-65
2023/01/08 04:37:55;;;;;;;;;;;;;;;10.12;65.08;99654.53;4471780;32;35165;-65
2023/01/08 04:40:23;;;;;;;;;;;;;;;10.14;64.39;99647.22;4480794;32;34667;-65
2023/01/08 04:42:50;;;;;;;;;;;;;;;9.73;65.65;99654.66;4479713;32;32947;-65
2023/01/08 04:45:17;;;;;;;;;;;;;;;10.22;64.27;99658.22;4482371;32;32676;-65
2023/01/08 04:47:45;;;;;;;;;;;;;;;10.08;64.74;99659.25;4483913;32;35666;-64
2023/01/08 04:50:12;;;;;;;;;;;;;;;9.96;64.91;99661.00;4481141;32;35416;-64
2023/01/08 04:52:39;;;;;;;;;;;;;;;9.16;67.48;99665.87;4478841;32;33910;-64
2023/01/08 04:55:07;;;;;;;;;;;;;;;9.42;67.05;99653.34;4482247;32;35130;-64
2023/01/08 04:57:34;;;;;;;;;;;;;;;9.89;65.41;99656.22;4468511;32;35278;-64
2023/01/08 05:00:02;;;;;;;;;;;;;;;9.83;65.05;99654.84;4470611;32;34426;-65
2023/01/08 05:02:29;;;;;;;;;;;;;;;9.86;65.40;99659.97;4474519;32;33854;-63
2023/01/08 05:04:57;;;;;;;;;;;;;;;9.69;66.09;99663.00;4478097;32;34517;-63
2023/01/08 05:07:24;;;;;;;;;;;;;;;9.73;65.29;99656.50;4475153;32;34315;-63
2023/01/08 05:09:52;;;;;;;;;;;;;;;9.28;66.99;99659.69;4480655;32;34062;-63
2023/01/08 05:12:19;;;;;;;;;;;;;;;9.24;67.66;99652.81;4471742;32;34014;-62
2023/01/08 05:14:46;;;;;;;;;;;;;;;8.93;68.36;99650.63;4474693;32;35195;-65
2023/01/08 05:17:13;;;;;;;;;;;;;;;9.12;68.53;99642.16;4474829;32;34718;-64
2023/01/08 05:19:41;;;;;;;;;;;;;;;9.70;66.38;99641.53;4475752;32;35229;-64
2023/01/08 05:22:08;;;;;;;;;;;;;;;8.85;68.68;99651.13;4471871;32;33076;-64
2023/01/08 05:24:35;;;;;;;;;;;;;;;9.65;66.65;99640.16;4468931;32;34268;-64
2023/01/08 05:27:03;;;;;;;;;;;;;;;9.65;66.22;99646.34;4474089;32;34265;-67
2023/01/08 05:29:30;;;;;;;;;;;;;;;9.89;64.83;99638.38;4468971;32;33675;-65
2023/01/08 05:31:57;;;;;;;;;;;;;;;9.30;67.20;99639.03;4478200;32;33281;-64
2023/01/08 05:34:25;;;;;;;;;;;;;;;9.94;64.96;99644.22;4473042;31;34062;-64
2023/01/08 05:36:52;;;;;;;;;;;;;;;9.48;66.61;99646.72;4465387;32;33942;-64
2023/01/08 05:39:19;;;;;;;;;;;;;;;9.09;67.97;99635.22;4465384;32;34866;-64
2023/01/08 05:41:46;;;;;;;;;;;;;;;9.82;65.23;99636.22;4466506;32;33780;-64
2023/01/08 05:44:14;;;;;;;;;;;;;;;9.48;66.55;99638.69;4466198;32;33999;-62
2023/01/08 05:46:41;;;;;;;;;;;;;;;9.53;66.28;99632.06;4469593;32;35436;-63
2023/01/08 05:49:08;;;;;;;;;;;;;;;9.87;65.03;99632.25;4481581;32;34076;-67
2023/01/08 05:51:36;;;;;;;;;;;;;;;9.61;65.75;99631.50;4479622;32;33189;-66
2023/01/08 05:54:03;;;;;;;;;;;;;;;9.55;65.85;99626.59;4481282;32;33975;-67
2023/01/08 05:56:30;;;;;;;;;;;;;;;9.60;65.75;99624.47;4474508;31;34080;-66
2023/01/08 05:58:57;;;;;;;;;;;;;;;9.26;66.82;99620.69;4467361;31;34275;-67
2023/01/08 06:01:25;;;;;;;;;;;;;;;8.77;68.38;99619.66;4470318;32;33473;-65
2023/01/08 06:03:55;;;;;;;;;;;;;;;9.58;65.78;99610.34;4466331;32;34945;-65
2023/01/08 06:06:22;;;;;;;;;;;;;;;9.72;65.11;99609.31;4468694;32;34874;-65
2023/01/08 06:08:50;;;;;;;;;;;;;;;9.26;66.79;99613.53;4473512;32;34331;-66
2023/01/08 06:11:17;;;;;;;;;;;;;;;8.83;68.75;99616.56;4478978;31;33252;-64
2023/01/08 06:13:44;;;;;;;;;;;;;;;9.00;68.08;99611.84;4469954;32;34958;-67
2023/01/08 06:16:12;;;;;;;;;;;;;;;9.15;67.99;99609.91;4464921;32;34439;-65
2023/01/08 06:18:39;;;;;;;;;;;;;;;9.09;67.94;99605.88;4472646;32;34155;-65
2023/01/08 06:21:06;;;;;;;;;;;;;;;9.46;65.90;99612.06;4483667;32;33311;-64
2023/01/08 06:23:33;;;;;;;;;;;;;;;9.73;65.00;99605.72;4467292;32;33874;-66
2023/01/08 06:26:02;;;;;;;;;;;;;;;9.56;65.63;99605.09;4467133;32;33969;-66
2023/01/08 06:28:30;;;;;;;;;;;;;;;9.39;66.64;99605.47;4477531;31;33991;-65
2023/01/08 06:30:58;;;;;;;;;;;;;;;9.40;66.32;99604.50;4482914;32;34674;-64
2023/01/08 06:33:25;;;;;;;;;;;;;;;8.50;69.46;99609.03;4481733;32;32921;-64
2023/01/08 06:35:53;;;;;;;;;;;;;;;9.13;67.61;99606.50;4479983;32;34552;-66
2023/01/08 06:38:20;;;;;;;;;;;;;;;9.20;67.44;99602.41;4478071;32;34007;-65
2023/01/08 06:40:48;;;;;;;;;;;;;;;9.52;66.09;99598.28;4473842;32;33658;-65
2023/01/08 06:43:16;;;;;;;;;;;;;;;9.52;65.78;99600.09;4468706;32;35451;-65
2023/01/08 06:45:43;;;;;;;;;;;;;;;9.03;67.12;99598.28;4472587;32;33876;-65
2023/01/08 06:48:11;;;;;;;;;;;;;;;9.36;66.50;99596.84;4468692;32;34195;-65
2023/01/08 06:50:38;;;;;;;;;;;;;;;9.18;67.10;99605.22;4483364;31;33384;-65
2023/01/08 06:53:05;;;;;;;;;;;;;;;9.74;65.26;99607.41;4470909;32;33841;-65
2023/01/08 06:55:33;;;;;;;;;;;;;;;9.63;65.86;99610.00;4472921;32;35160;-64
2023/01/08 06:58:00;;;;;;;;;;;;;;;9.40;66.05;99596.50;4468166;32;34372;-65
2023/01/08 07:00:27;;;;;;;;;;;;;;;9.83;64.74;99601.38;4478863;31;33108;-65
2023/01/08 07:02:55;;;;;;;;;;;;;;;10.00;63.88;99608.16;4472099;32;34391;-65
2023/01/08 07:05:22;;;;;;;;;;;;;;;9.73;64.86;99609.22;4477898;32;34098;-65
2023/01/08 07:07:49;;;;;;;;;;;;;;;9.80;65.05;99605.13;4472127;32;34549;-65
2023/01/08 07:10:17;;;;;;;;;;;;;;;9.92;64.29;99599.84;4477518;31;33298;-65
2023/01/08 07:12:46;;;;;;;;;;;;;;;9.33;66.34;99595.22;4480311;31;35263;-65
2023/01/08 07:15:13;;;;;;;;;;;;;;;9.79;64.77;99611.47;4483119;32;33121;-65
2023/01/08 07:17:41;;;;;;;;;;;;;;;9.16;67.07;99611.63;4478056;31;34364;-64
2023/01/08 07:20:08;;;;;;;;;;;;;;;9.91;63.96;99600.81;4472774;32;33354;-64
2023/01/08 07:22:35;;;;;;;;;;;;;;;9.76;64.11;99600.16;4465314;32;35258;-65
2023/01/08 07:25:04;;;;;;;;;;;;;;;9.08;67.32;99601.47;4467564;32;34370;-64
2023/01/08 07:27:31;;;;;;;;;;;;;;;8.89;67.56;99607.25;4471494;31;35203;-65
2023/01/08 07:29:58;;;;;;;;;;;;;;;9.65;65.33;99600.91;4482508;32;34337;-64
2023/01/08 07:32:26;;;;;;;;;;;;;;;9.84;64.52;99594.22;4480908;32;33931;-64
2023/01/08 07:34:53;;;;;;;;;;;;;;;9.45;66.13;99583.66;4468980;32;35489;-64
2023/01/08 07:37:20;;;;;;;;;;;;;;;9.69;64.98;99590.84;4475448;32;35261;-66
2023/01/08 07:39:48;;;;;;;;;;;;;;;8.75;68.03;99596.69;4474845;32;33529;-65
2023/01/08 07:42:15;;;;;;;;;;;;;;;9.55;65.66;99587.38;4480663;32;33782;-65
2023/01/08 07:44:42;;;;;;;;;;;;;;;9.53;65.39;99592.00;4477772;32;34393;-65
2023/01/08 07:47:10;;;;;;;;;;;;;;;9.65;64.84;99589.37;4476390;32;34281;-64
2023/01/08 07:49:37;;;;;;;;;;;;;;;9.55;65.52;99591.88;4480070;32;33173;-65
2023/01/08 07:52:04;;;;;;;;;;;;;;;9.22;66.85;99585.34;4479095;32;33772;-65
2023/01/08 07:54:32;;;;;;;;;;;;;;;9.78;64.79;99583.00;4474149;31;33981;-65
2023/01/08 07:56:59;;;;;;;;;;;;;;;9.37;66.29;99580.69;4479785;32;35251;-64
2023/01/08 07:59:26;;;;;;;;;;;;;;;9.82;64.64;99586.28;4474591;32;33403;-65
2023/01/08 08:01:53;;;;;;;;;;;;;;;9.96;64.02;99579.94;4481380;32;34105;-65
2023/01/08 08:04:21;;;;;;;;;;;;;;;10.04;64.01;99577.53;4475637;32;33981;-65
2023/01/08 08:06:48;;;;;;;;;;;;;;;9.88;64.26;99577.81;4473638;31;34239;-66
2023/01/08 08:09:16;;;;;;;;;;;;;;;10.28;62.18;99572.19;4474775;32;35023;-65
2023/01/08 08:11:43;;;;;;;;;;;;;;;9.59;64.85;99577.31;4482177;32;33930;-65
2023/01/08 08:14:10;;;;;;;;;;;;;;;8.76;67.79;99577.03;4467850;32;35407;-65
2023/01/08 08:16:37;;;;;;;;;;;;;;;9.18;66.92;99577.62;4470735;32;33931;-65
2023/01/08 08:19:05;;;;;;;;;;;;;;;8.75;67.29;99567.34;4477188;32;32145;-64
2023/01/08 08:21:32;;;;;;;;;;;;;;;9.39;65.30;99560.06;4472640;31;33517;-65
2023/01/08 08:23:59;;;;;;;;;;;;;;;9.36;65.59;99564.78;4466669;32;34804;-65
2023/01/08 08:26:27;;;;;;;;;;;;;;;9.73;64.19;99557.59;4467262;32;34358;-64
2023/01/08 08:28:54;;;;;;;;;;;;;;;8.94;67.08;99559.75;4476082;32;32886;-63
2023/01/08 08:31:21;;;;;;;;;;;;;;;8.79;67.49;99552.81;4476151;32;33033;-65
2023/01/08 08:33:49;;;;;;;;;;;;;;;8.71;67.31;99550.69;4477614;31;34012;-65
2023/01/08 08:36:16;;;;;;;;;;;;;;;8.45;68.49;99555.19;4474844;32;34224;-65
2023/01/08 08:38:43;;;;;;;;;;;;;;;9.48;65.01;99547.88;4465314;32;33557;-67
2023/01/08 08:41:11;;;;;;;;;;;;;;;9.39;65.26;99552.06;4471708;32;34160;-66
2023/01/08 08:43:38;;;;;;;;;;;;;;;9.33;65.22;99552.50;4471747;32;33998;-65
2023/01/08 08:46:05;;;;;;;;;;;;;;;9.65;64.72;99547.47;4474548;32;34979;-65
2023/01/08 08:48:33;;;;;;;;;;;;;;;8.78;66.76;99541.28;4480510;32;33375;-65
2023/01/08 08:51:00;;;;;;;;;;;;;;;9.40;65.19;99539.53;4479704;31;33893;-65
2023/01/08 08:53:27;;;;;;;;;;;;;;;9.83;64.07;99533.72;4482540;32;34159;-65
2023/01/08 08:55:56;;;;;;;;;;;;;;;9.82;63.54;99540.00;4477381;32;34904;-65
2023/01/08 08:58:24;;;;;;;;;;;;;;;9.76;64.08;99530.66;4479426;32;34505;-65
2023/01/08 09:00:51;;;;;;;;;;;;;;;9.98;62.88;99530.75;4465219;32;32722;-65
2023/01/08 09:03:18;;;;;;;;;;;;;;;9.01;66.55;99539.66;4468868;32;33019;-65
2023/01/08 09:05:46;;;;;;;;;;;;;;;9.47;64.79;99532.78;4470411;32;34175;-66
2023/01/08 09:08:13;;;;;;;;;;;;;;;9.54;64.91;99534.06;4464746;32;32105;-66
2023/01/08 09:10:41;;;;;;;;;;;;;;;9.91;63.74;99529.47;4465528;32;34045;-66
2023/01/08 09:13:08;;;;;;;;;;;;;;;9.86;63.27;99520.97;4450212;32;880717;-66
2023/01/08 09:15:36;;;;;;;;;;;;;;;9.09;65.92;99526.63;4469287;32;33609;-65
2023/01/08 09:18:03;;;;;;;;;;;;;;;8.44;68.54;99528.59;4465835;32;33472;-66
2023/01/08 09:20:31;;;;;;;;;;;;;;;9.39;66.32;99524.50;4465937;32;32923;-66
2023/01/08 09:22:58;;;;;;;;;;;;;;;8.79;67.53;99529.63;4469442;32;33923;-65
2023/01/08 09:25:26;;;;;;;;;;;;;;;8.03;70.30;99529.59;4480986;32;32784;-65
2023/01/08 09:28:00;;;;;;;;;;;;;;;8.80;67.33;99528.69;4476476;32;33813;-66
2023/01/08 09:30:27;;;;;;;;;;;;;;;9.18;66.68;99527.78;4478959;32;35216;-67
2023/01/08 09:32:55;;;;;;;;;;;;;;;9.95;63.79;99519.41;4479617;32;34303;-65
2023/01/08 09:35:22;;;;;;;;;;;;;;;9.76;64.00;99518.13;4467764;32;34956;-66
2023/01/08 09:37:54;;;;;;;;;;;;;;;9.40;65.52;99512.84;4469174;32;33357;-66
2023/01/08 09:40:21;;;;;;;;;;;;;;;10.05;63.76;99493.69;4478437;32;34125;-67
2023/01/08 09:42:53;;;;;;;;;;;;;;;10.47;61.82;99489.53;4484249;32;35019;-65
2023/01/08 09:45:24;;;;;;;;;;;;;;;10.88;60.55;99490.78;4477868;32;34538;-65
2023/01/08 09:47:55;;;;;;;;;;;;;;;10.61;61.61;99490.28;4461718;32;34541;-65
2023/01/08 09:50:23;;;;;;;;;;;;;;;9.03;65.65;99483.50;4464209;32;35201;-66
2023/01/08 09:52:50;;;;;;;;;;;;;;;10.04;63.60;99479.44;4464948;31;34273;-65
2023/01/08 09:55:17;;;;;;;;;;;;;;;10.10;63.34;99469.25;4472030;32;34522;-65
2023/01/08 09:57:45;;;;;;;;;;;;;;;9.95;63.48;99473.94;4477148;31;33247;-65
2023/01/08 10:00:39;;;;;;;;;;;;;;;10.20;62.86;99467.56;4478489;32;35142;-66
2023/01/08 10:03:08;;;;;;;;;;;;;;;10.77;60.36;99463.12;4466899;32;34311;-66
2023/01/08 10:05:35;;;;;;;;;;;;;;;10.61;60.54;99447.44;4460781;32;35321;-65
2023/01/08 10:08:03;;;;;;;;;;;;;;;10.41;61.59;99449.03;4469924;32;33838;-66
2023/01/08 10:10:30;;;;;;;;;;;;;;;10.30;61.52;99454.34;4469577;32;34394;-66
2023/01/08 10:12:58;;;;;;;;;;;;;;;10.49;61.17;99449.25;4473985;32;34245;-66
2023/01/08 10:15:25;;;;;;;;;;;;;;;10.61;61.07;99440.28;4474147;32;33892;-65
2023/01/08 10:17:58;;;;;;;;;;;;;;;10.26;61.28;99445.72;4456110;32;33242;-66
2023/01/08 10:20:26;;;;;;;;;;;;;;;10.46;61.46;99434.34;4482153;32;35686;-66
2023/01/08 10:22:53;;;;;;;;;;;;;;;10.22;62.84;99425.53;4474312;32;34584;-65
2023/01/08 10:25:25;;;;;;;;;;;;;;;10.63;61.96;99434.81;4470046;32;34043;-66
2023/01/08 10:27:53;;;;;;;;;;;;;;;11.25;59.85;99431.50;4482924;32;34499;-65
2023/01/08 10:30:29;;;;;;;;;;;;;;;12.05;57.29;99422.16;4470178;32;35304;-65
2023/01/08 10:33:00;;;;;;;;;;;;;;;11.49;57.99;99428.63;4475229;32;35366;-67
2023/01/08 10:35:30;;;;;;;;;;;;;;;12.99;54.82;99415.59;4463442;32;33839;-66
2023/01/08 10:37:57;;;;;;;;;;;;;;;13.63;52.18;99414.28;4457147;32;33395;-66
2023/01/08 10:40:31;;;;;;;;;;;;;;;14.53;50.07;99404.06;4460072;32;34195;-66
2023/01/08 10:43:04;;;;;;;;;;;;;;;16.41;45.46;99400.47;4470068;32;35442;-66
2023/01/08 10:45:31;;;;;;;;;;;;;;;17.32;43.17;99387.12;4465377;32;34191;-67
2023/01/08 10:47:59;;;;;;;;;;;;;;;17.82;41.45;99382.63;4476962;32;33978;-66
2023/01/08 10:50:28;;;;;;;;;;;;;;;16.31;44.91;99384.37;4472487;32;35334;-66
2023/01/08 10:52:59;;;;;;;;;;;;;;;15.38;46.25;99382.13;4473528;32;34240;-65
2023/01/08 10:55:28;;;;;;;;;;;;;;;15.67;46.24;99383.75;4479851;32;34574;-66
2023/01/08 10:57:58;;;;;;;;;;;;;;;15.33;46.77;99378.19;4485741;32;33525;-67
2023/01/08 11:00:27;;;;;;;;;;;;;;;13.05;52.04;99377.44;4474996;32;33291;-65
2023/01/08 11:02:55;;;;;;;;;;;;;;;13.99;50.03;99372.31;4473558;32;34394;-67
2023/01/08 11:05:30;;;;;;;;;;;;;;;13.11;52.85;99373.34;4474000;32;34218;-66
2023/01/08 11:07:58;;;;;;;;;;;;;;;13.76;50.53;99368.28;4485072;32;33627;-65
2023/01/08 11:10:26;;;;;;;;;;;;;;;12.67;53.96;99366.63;4482768;32;34346;-66
2023/01/08 11:13:03;;;;;;;;;;;;;;;12.67;54.07;99362.09;4470922;32;34634;-66
2023/01/08 11:15:32;;;;;;;;;;;;;;;13.12;52.80;99355.41;4468786;32;33861;-65
2023/01/08 11:18:22;;;;;;;;;;;;;;;12.34;54.63;99350.69;4456636;32;33008;-67
2023/01/08 11:20:51;;;;;;;;;;;;;;;12.22;55.13;99341.03;4465202;32;34222;-67
2023/01/08 11:23:22;;;;;;;;;;;;;;;11.98;56.25;99336.00;4472207;32;34950;-65
2023/01/08 11:26:00;;;;;;;;;;;;;;;12.37;55.14;99335.31;4468609;32;34262;-65
2023/01/08 11:28:48;;;;;;;;;;;;;;;12.14;55.81;99337.34;4462375;32;34648;-67
2023/01/08 11:31:36;;;;;;;;;;;;;;;11.06;59.09;99333.09;4463044;32;34448;-66
2023/01/08 11:34:05;;;;;;;;;;;;;;;11.62;57.86;99311.38;4457109;32;34364;-66
2023/01/08 11:36:33;;;;;;;;;;;;;;;11.55;58.16;99314.69;4459011;32;34370;-67
2023/01/08 11:39:01;;;;;;;;;;;;;;;11.35;58.82;99306.53;4468032;32;34543;-65
2023/01/08 11:41:57;;;;;;;;;;;;;;;11.26;59.07;99309.97;4476970;32;34300;-65
2023/01/08 11:44:40;;;;;;;;;;;;;;;11.67;57.84;99297.56;4456925;32;34253;-65
2023/01/08 11:47:14;;;;;;;;;;;;;;;11.69;58.09;99300.13;4462536;32;34006;-65
2023/01/08 11:49:45;;;;;;;;;;;;;;;11.11;59.92;99297.91;4460271;32;34449;-65
2023/01/08 11:52:12;;;;;;;;;;;;;;;10.04;63.40;99300.28;4460609;32;34361;-65
2023/01/08 11:54:51;;;;;;;;;;;;;;;11.18;60.51;99291.87;4476061;32;34170;-66
2023/01/08 11:57:37;;;;;;;;;;;;;;;11.51;58.88;99275.75;4477391;32;34199;-65
2023/01/08 12:00:23;;;;;;;;;;;;;;;11.60;58.35;99281.16;4476714;32;34260;-66
2023/01/08 12:02:54;;;;;;;;;;;;;;;11.70;58.60;99283.03;4474222;32;33933;-67
2023/01/08 12:05:25;;;;;;;;;;;;;;;12.09;57.01;99284.94;4461131;32;34198;-66
2023/01/08 12:07:52;;;;;;;;;;;;;;;11.82;57.93;99282.81;4473719;32;34120;-65
2023/01/08 12:10:23;;;;;;;;;;;;;;;11.86;57.68;99278.91;4474180;32;33296;-65
2023/01/08 12:13:09;;;;;;;;;;;;;;;11.87;57.96;99277.06;4473603;31;34998;-66
2023/01/08 12:15:37;;;;;;;;;;;;;;;11.94;57.80;99263.97;4470590;31;35542;-66
2023/01/08 12:18:07;;;;;;;;;;;;;;;11.59;59.26;99267.91;4478950;31;34129;-65
2023/01/08 12:20:36;;;;;;;;;;;;;;;10.76;61.34;99274.91;4466201;32;33334;-66
2023/01/08 12:23:05;;;;;;;;;;;;;;;11.81;58.76;99265.06;4473069;32;35301;-67
2023/01/08 12:25:45;;;;;;;;;;;;;;;12.00;57.70;99272.34;4478499;31;34307;-65
2023/01/08 12:28:12;;;;;;;;;;;;;;;11.97;57.74;99264.56;4469275;32;34349;-65
2023/01/08 12:30:45;;;;;;;;;;;;;;;11.70;58.97;99267.81;4471887;31;33446;-65
2023/01/08 12:33:31;;;;;;;;;;;;;;;12.19;57.42;99268.87;4465867;31;35183;-66
2023/01/08 12:35:59;;;;;;;;;;;;;;;12.30;56.98;99268.78;4471509;31;32474;-66
2023/01/08 12:38:31;;;;;;;;;;;;;;;12.03;58.14;99257.81;4456002;32;32784;-67
2023/01/08 12:41:04;;;;;;;;;;;;;;;12.31;57.14;99264.25;4458447;32;33174;-66
2023/01/08 12:43:54;;;;;;;;;;;;;;;12.52;56.72;99262.34;4452610;32;34292;-65
2023/01/08 12:46:22;;;;;;;;;;;;;;;12.75;55.90;99264.75;4460057;32;34270;-66
2023/01/08 12:48:50;;;;;;;;;;;;;;;12.61;56.17;99254.41;4473729;31;33853;-66
2023/01/08 12:51:30;;;;;;;;;;;;;;;12.88;55.33;99243.84;4462651;32;34177;-67
2023/01/08 12:54:21;;;;;;;;;;;;;;;12.92;55.32;99249.78;4457378;32;34836;-66
2023/01/08 12:57:01;;;;;;;;;;;;;;;13.02;55.05;99253.31;4436737;32;34447;-66
2023/01/08 12:59:34;;;;;;;;;;;;;;;12.83;55.75;99255.00;4456013;32;34723;-66
2023/01/08 13:02:20;;;;;;;;;;;;;;;13.11;54.58;99255.13;4479044;32;33381;-66
2023/01/08 13:04:48;;;;;;;;;;;;;;;12.89;55.99;99250.06;4466095;32;35065;-66